Zuiderdam — PBIG — position and weather

sailwx.info

Track history (hours):
 
Tides and Currents Weather Stations Pressure Air Temp Water Temp Dewpoint Dewpoint Depression Visibility Wind Speed Wind Dir Waves Ship Positions

Zuiderdam (Netherlands)

Operator: Holland America Line

Last reported at 2019-Oct-18 18:00 UTC. Time now 2019-Oct-19 05:09 UTC.
Position N 35°54' W 074°42'.

Type: Passenger vessel. MMSI: 245304000.

Wind from 320 at 25 knots

Barometer 1014.0 mb
Air temperature 16.0 ° C
Visibility: greater than 10.8 NM
Dewpoint 8.5 ° C
Water temperature 25.7 ° C

Date/timePositionNaut miles runAvg speedWind from/ knotsBaromVisibWave heightAir tempDewpointWater temp
2019-Oct-18 18:00N 35°54' W 074°42'18315.3 320 / 251014.010.8 16.0 8.525.7
2019-Oct-18 06:00N 38°54' W 074°00'2316.7 310 / 401007.010.8 12.9 7.119.9
2019-Oct-18 04:35N 39°17' W 074°01'315.7
2019-Oct-18 04:24N 39°20' W 073°60'615.7
2019-Oct-18 04:00N 39°26' W 073°58'815.8
2019-Oct-18 03:30N 39°34' W 073°56'815.8
2019-Oct-18 03:00N 39°42' W 073°55'815.8
2019-Oct-18 02:30N 39°50' W 073°53'816.0
2019-Oct-18 02:00N 39°58' W 073°52'2515.8
2019-Oct-18 00:25N 40°23' W 073°49'511.5
2019-Oct-18 00:00N 40°27' W 073°51'815.1
2019-Oct-17 23:30N 40°31' W 073°59'815.8
2019-Oct-17 23:01N 40°38' W 074°04'611.3
2019-Oct-17 22:30N 40°44' W 074°01'3 4.2
2019-Oct-17 21:52N 40°46' W 073°60'0 0.0
2019-Oct-17 21:28N 40°46' W 073°60'0 0.0
2019-Oct-17 20:55N 40°46' W 073°60'0 0.0
2019-Oct-17 20:28N 40°46' W 073°60'0 0.0
2019-Oct-17 19:55N 40°46' W 073°60'0 0.0
2019-Oct-17 19:28N 40°46' W 073°60'0 0.0
2019-Oct-17 18:55N 40°46' W 073°60'0 0.0
2019-Oct-17 18:28N 40°46' W 073°60'0 0.0
2019-Oct-17 17:40N 40°46' W 073°60'0 0.0
2019-Oct-17 17:22N 40°46' W 073°60'0 0.0
2019-Oct-17 16:55N 40°46' W 073°60'0 0.0
2019-Oct-17 16:28N 40°46' W 073°60'0 0.0
2019-Oct-17 15:55N 40°46' W 073°60'0 0.0
2019-Oct-17 15:28N 40°46' W 073°60'0 0.0
2019-Oct-17 14:58N 40°46' W 073°60'0 0.0
2019-Oct-17 14:28N 40°46' W 073°60'0 0.0
2019-Oct-17 13:55N 40°46' W 073°60'0 0.0
2019-Oct-17 13:22N 40°46' W 073°60'0 0.0
2019-Oct-17 12:58N 40°46' W 073°60'0 0.0
2019-Oct-17 12:25N 40°46' W 073°60'0 0.0
2019-Oct-17 11:55N 40°46' W 073°60'0 0.3
2019-Oct-17 11:29N 40°46' W 073°60'3 5.6
2019-Oct-17 11:00N 40°44' W 074°01'612.1
2019-Oct-17 10:30N 40°38' W 074°03'714.4
2019-Oct-17 10:00N 40°31' W 073°59'715.1
2019-Oct-17 09:30N 40°28' W 073°50'2 3.0
2019-Oct-17 08:55N 40°27' W 073°48'3 8.3
2019-Oct-17 08:31N 40°27' W 073°44'713.4
2019-Oct-17 08:00N 40°28' W 073°35'10414.2
2019-Oct-17 00:40N 41°06' W 071°27'414.6
2019-Oct-17 00:24N 41°10' W 071°25'1217.3
2019-Oct-16 23:43N 41°22' W 071°25'416.2
2019-Oct-16 23:30N 41°25' W 071°24'5 9.4
2019-Oct-16 23:00N 41°29' W 071°21'0 0.5
2019-Oct-16 22:30N 41°29' W 071°20'0 0.0
2019-Oct-16 21:42N 41°29' W 071°20'0 0.0
2019-Oct-16 21:11N 41°29' W 071°20'0 0.2
2019-Oct-16 21:00N 41°29' W 071°20'0 0.5
2019-Oct-16 20:24N 41°29' W 071°20'3 0.4
2019-Oct-16 13:42N 41°27' W 071°23'415.2
2019-Oct-16 13:26N 41°23' W 071°21'64 4.2
2019-Oct-15 22:07N 42°22' W 070°46'217.8
2019-Oct-15 22:00N 42°23' W 070°49'612.1
2019-Oct-15 21:30N 42°21' W 070°56'4 7.6
2019-Oct-15 21:00N 42°21' W 071°02'0 0.7
2019-Oct-15 20:26N 42°21' W 071°02'0 0.0
2019-Oct-15 19:59N 42°21' W 071°02'0 0.0
2019-Oct-15 19:29N 42°21' W 071°02'0 0.0
2019-Oct-15 18:59N 42°21' W 071°02'0 0.0
2019-Oct-15 18:29N 42°21' W 071°02'0 0.0
2019-Oct-15 17:59N 42°21' W 071°02'0 0.0
2019-Oct-15 17:29N 42°21' W 071°02'0 0.0
2019-Oct-15 16:44N 42°21' W 071°02'0 0.0
2019-Oct-15 16:26N 42°21' W 071°02'0 0.0
2019-Oct-15 15:56N 42°21' W 071°02'0 0.0
2019-Oct-15 15:26N 42°21' W 071°02'0 0.0
2019-Oct-15 14:56N 42°21' W 071°02'0 0.0
2019-Oct-15 14:26N 42°21' W 071°02'0 0.0
2019-Oct-15 13:59N 42°21' W 071°02'0 0.0
2019-Oct-15 13:29N 42°21' W 071°02'0 0.0
2019-Oct-15 12:56N 42°21' W 071°02'0 0.0
2019-Oct-15 12:29N 42°21' W 071°02'0 0.0
2019-Oct-15 11:59N 42°21' W 071°02'0 0.0
2019-Oct-15 11:29N 42°21' W 071°02'1 1.9
2019-Oct-15 10:59N 42°21' W 071°01'4 8.5
2019-Oct-15 10:30N 42°22' W 070°56'713.4
2019-Oct-15 10:00N 42°26' W 070°48'612.2
2019-Oct-15 09:30N 42°29' W 070°41'611.9
2019-Oct-15 09:00N 42°32' W 070°35'612.2
2019-Oct-15 08:30N 42°36' W 070°28'309 8.9
2019-Oct-13 22:00N 44°06' W 063°42'1824.3 340 / 121013.010.8 12.4 9.814.1
2019-Oct-13 21:14N 44°22' W 063°28'418.4
2019-Oct-13 21:00N 44°26' W 063°29'713.8
2019-Oct-13 20:30N 44°33' W 063°31'612.5
2019-Oct-13 20:01N 44°39' W 063°33'1 1.1
2019-Oct-13 19:30N 44°38' W 063°34'0 0.0
2019-Oct-13 19:00N 44°38' W 063°34'0 0.0
2019-Oct-13 18:30N 44°38' W 063°34'0 0.0
2019-Oct-13 18:00N 44°38' W 063°34'0 0.0
2019-Oct-13 17:30N 44°38' W 063°34'0 0.0
2019-Oct-13 17:00N 44°38' W 063°34'0 0.0
2019-Oct-13 16:30N 44°38' W 063°34'0 0.0
2019-Oct-13 16:00N 44°38' W 063°34'0 0.0
2019-Oct-13 15:30N 44°38' W 063°34'0 0.0
2019-Oct-13 15:00N 44°38' W 063°34'0 0.0
2019-Oct-13 14:30N 44°38' W 063°34'0 0.0
2019-Oct-13 14:00N 44°38' W 063°34'0 0.0
2019-Oct-13 13:30N 44°38' W 063°34'0 0.0
2019-Oct-13 13:00N 44°38' W 063°34'0 0.0
2019-Oct-13 12:30N 44°38' W 063°34'0 0.0
2019-Oct-13 12:00N 44°38' W 063°34'0 0.0
2019-Oct-13 11:30N 44°38' W 063°34'0 0.0
2019-Oct-13 11:00N 44°38' W 063°34'0 0.8
2019-Oct-13 10:30N 44°38' W 063°34'510.4
2019-Oct-13 10:00N 44°33' W 063°32'611.6
2019-Oct-13 09:30N 44°28' W 063°27'918.1
2019-Oct-13 09:00N 44°28' W 063°15'918.3
2019-Oct-13 08:31N 44°28' W 063°02'1121.3
2019-Oct-13 08:00N 44°24' W 062°48'15010.7 350 / 151009.010.8 12.812.314.3
2019-Oct-12 18:00N 46°06' W 060°12'18 1.8 070 / 151013.010.8 10.8 8.614.1
2019-Oct-12 08:00N 46°24' W 060°06'12511.4 100 / 321026.010.8 10.8 8.614.1
2019-Oct-11 21:00N 46°12' W 063°06'42 3.2 070 / 121031.010.8 11.8 6.315.1
2019-Oct-11 08:00N 46°06' W 062°06'11612.9 120 / 251031.010.8 11.8 6.315.1
2019-Oct-10 23:00N 48°00' W 062°36'1312.7 060 / 71031.010.8 9.8 7.411.8
2019-Oct-10 22:00N 48°12' W 062°42'16914.1 030 / 81031.010.8 9.8 7.411.8
2019-Oct-10 10:00N 49°12' W 066°42'2323.0 260 / 51032.010.8 7.1 4.6 9.5
2019-Oct-10 09:00N 49°00' W 067°12'8 7.9 280 / 101032.010.8 6.8 4.3 8.5
2019-Oct-10 08:00N 49°00' W 067°24'18618.6 230 / 101032.010.8 6.6 4.4 8.7
2019-Oct-09 22:00N 46°54' W 070°48'   040 / 131030.010.8 12.5 4.216.0
Track history (hours):
 
Tides and Currents Weather Stations Pressure Air Temp Water Temp Dewpoint Dewpoint Depression Visibility Wind Speed Wind Dir Waves Ship Positions

Zuiderdam (Netherlands)

Operator: Holland America Line

Last reported at 2019-Oct-18 18:00 UTC. Time now 2019-Oct-19 05:09 UTC.
Position N 35°54' W 074°42'.

Type: Passenger vessel. MMSI: 245304000.

Wind from 320 at 25 knots

Barometer 1014.0 mb
Air temperature 16.0 ° C
Visibility: greater than 10.8 NM
Dewpoint 8.5 ° C
Water temperature 25.7 ° C

Date/timePositionNaut miles runAvg speedWind from/ knotsBaromVisibWave heightAir tempDewpointWater temp
2019-Oct-18 18:00N 35°54' W 074°42'18315.3 320 / 251014.010.8 16.0 8.525.7
2019-Oct-18 06:00N 38°54' W 074°00'2316.7 310 / 401007.010.8 12.9 7.119.9
2019-Oct-18 04:35N 39°17' W 074°01'315.7
2019-Oct-18 04:24N 39°20' W 073°60'615.7
2019-Oct-18 04:00N 39°26' W 073°58'815.8
2019-Oct-18 03:30N 39°34' W 073°56'815.8
2019-Oct-18 03:00N 39°42' W 073°55'815.8
2019-Oct-18 02:30N 39°50' W 073°53'816.0
2019-Oct-18 02:00N 39°58' W 073°52'2515.8
2019-Oct-18 00:25N 40°23' W 073°49'511.5
2019-Oct-18 00:00N 40°27' W 073°51'815.1
2019-Oct-17 23:30N 40°31' W 073°59'815.8
2019-Oct-17 23:01N 40°38' W 074°04'611.3
2019-Oct-17 22:30N 40°44' W 074°01'3 4.2
2019-Oct-17 21:52N 40°46' W 073°60'0 0.0
2019-Oct-17 21:28N 40°46' W 073°60'0 0.0
2019-Oct-17 20:55N 40°46' W 073°60'0 0.0
2019-Oct-17 20:28N 40°46' W 073°60'0 0.0
2019-Oct-17 19:55N 40°46' W 073°60'0 0.0
2019-Oct-17 19:28N 40°46' W 073°60'0 0.0
2019-Oct-17 18:55N 40°46' W 073°60'0 0.0
2019-Oct-17 18:28N 40°46' W 073°60'0 0.0
2019-Oct-17 17:40N 40°46' W 073°60'0 0.0
2019-Oct-17 17:22N 40°46' W 073°60'0 0.0
2019-Oct-17 16:55N 40°46' W 073°60'0 0.0
2019-Oct-17 16:28N 40°46' W 073°60'0 0.0
2019-Oct-17 15:55N 40°46' W 073°60'0 0.0
2019-Oct-17 15:28N 40°46' W 073°60'0 0.0
2019-Oct-17 14:58N 40°46' W 073°60'0 0.0
2019-Oct-17 14:28N 40°46' W 073°60'0 0.0
2019-Oct-17 13:55N 40°46' W 073°60'0 0.0
2019-Oct-17 13:22N 40°46' W 073°60'0 0.0
2019-Oct-17 12:58N 40°46' W 073°60'0 0.0
2019-Oct-17 12:25N 40°46' W 073°60'0 0.0
2019-Oct-17 11:55N 40°46' W 073°60'0 0.3
2019-Oct-17 11:29N 40°46' W 073°60'3 5.6
2019-Oct-17 11:00N 40°44' W 074°01'612.1
2019-Oct-17 10:30N 40°38' W 074°03'714.4
2019-Oct-17 10:00N 40°31' W 073°59'715.1
2019-Oct-17 09:30N 40°28' W 073°50'2 3.0
2019-Oct-17 08:55N 40°27' W 073°48'3 8.3
2019-Oct-17 08:31N 40°27' W 073°44'713.4
2019-Oct-17 08:00N 40°28' W 073°35'10414.2
2019-Oct-17 00:40N 41°06' W 071°27'414.6
2019-Oct-17 00:24N 41°10' W 071°25'1217.3
2019-Oct-16 23:43N 41°22' W 071°25'416.2
2019-Oct-16 23:30N 41°25' W 071°24'5 9.4
2019-Oct-16 23:00N 41°29' W 071°21'0 0.5
2019-Oct-16 22:30N 41°29' W 071°20'0 0.0
2019-Oct-16 21:42N 41°29' W 071°20'0 0.0
2019-Oct-16 21:11N 41°29' W 071°20'0 0.2
2019-Oct-16 21:00N 41°29' W 071°20'0 0.5
2019-Oct-16 20:24N 41°29' W 071°20'3 0.4
2019-Oct-16 13:42N 41°27' W 071°23'415.2
2019-Oct-16 13:26N 41°23' W 071°21'64 4.2
2019-Oct-15 22:07N 42°22' W 070°46'217.8
2019-Oct-15 22:00N 42°23' W 070°49'612.1
2019-Oct-15 21:30N 42°21' W 070°56'4 7.6
2019-Oct-15 21:00N 42°21' W 071°02'0 0.7
2019-Oct-15 20:26N 42°21' W 071°02'0 0.0
2019-Oct-15 19:59N 42°21' W 071°02'0 0.0
2019-Oct-15 19:29N 42°21' W 071°02'0 0.0
2019-Oct-15 18:59N 42°21' W 071°02'0 0.0
2019-Oct-15 18:29N 42°21' W 071°02'0 0.0
2019-Oct-15 17:59N 42°21' W 071°02'0 0.0
2019-Oct-15 17:29N 42°21' W 071°02'0 0.0
2019-Oct-15 16:44N 42°21' W 071°02'0 0.0
2019-Oct-15 16:26N 42°21' W 071°02'0 0.0
2019-Oct-15 15:56N 42°21' W 071°02'0 0.0
2019-Oct-15 15:26N 42°21' W 071°02'0 0.0
2019-Oct-15 14:56N 42°21' W 071°02'0 0.0
2019-Oct-15 14:26N 42°21' W 071°02'0 0.0
2019-Oct-15 13:59N 42°21' W 071°02'0 0.0
2019-Oct-15 13:29N 42°21' W 071°02'0 0.0
2019-Oct-15 12:56N 42°21' W 071°02'0 0.0
2019-Oct-15 12:29N 42°21' W 071°02'0 0.0
2019-Oct-15 11:59N 42°21' W 071°02'0 0.0
2019-Oct-15 11:29N 42°21' W 071°02'1 1.9
2019-Oct-15 10:59N 42°21' W 071°01'4 8.5
2019-Oct-15 10:30N 42°22' W 070°56'713.4
2019-Oct-15 10:00N 42°26' W 070°48'612.2
2019-Oct-15 09:30N 42°29' W 070°41'611.9
2019-Oct-15 09:00N 42°32' W 070°35'612.2
2019-Oct-15 08:30N 42°36' W 070°28'309 8.9
2019-Oct-13 22:00N 44°06' W 063°42'1824.3 340 / 121013.010.8 12.4 9.814.1
2019-Oct-13 21:14N 44°22' W 063°28'418.4
2019-Oct-13 21:00N 44°26' W 063°29'713.8
2019-Oct-13 20:30N 44°33' W 063°31'612.5
2019-Oct-13 20:01N 44°39' W 063°33'1 1.1
2019-Oct-13 19:30N 44°38' W 063°34'0 0.0
2019-Oct-13 19:00N 44°38' W 063°34'0 0.0
2019-Oct-13 18:30N 44°38' W 063°34'0 0.0
2019-Oct-13 18:00N 44°38' W 063°34'0 0.0
2019-Oct-13 17:30N 44°38' W 063°34'0 0.0
2019-Oct-13 17:00N 44°38' W 063°34'0 0.0
2019-Oct-13 16:30N 44°38' W 063°34'0 0.0
2019-Oct-13 16:00N 44°38' W 063°34'0 0.0
2019-Oct-13 15:30N 44°38' W 063°34'0 0.0
2019-Oct-13 15:00N 44°38' W 063°34'0 0.0
2019-Oct-13 14:30N 44°38' W 063°34'0 0.0
2019-Oct-13 14:00N 44°38' W 063°34'0 0.0
2019-Oct-13 13:30N 44°38' W 063°34'0 0.0
2019-Oct-13 13:00N 44°38' W 063°34'0 0.0
2019-Oct-13 12:30N 44°38' W 063°34'0 0.0
2019-Oct-13 12:00N 44°38' W 063°34'0 0.0
2019-Oct-13 11:30N 44°38' W 063°34'0 0.0
2019-Oct-13 11:00N 44°38' W 063°34'0 0.8
2019-Oct-13 10:30N 44°38' W 063°34'510.4
2019-Oct-13 10:00N 44°33' W 063°32'611.6
2019-Oct-13 09:30N 44°28' W 063°27'918.1
2019-Oct-13 09:00N 44°28' W 063°15'918.3
2019-Oct-13 08:31N 44°28' W 063°02'1121.3
2019-Oct-13 08:00N 44°24' W 062°48'15010.7 350 / 151009.010.8 12.812.314.3
2019-Oct-12 18:00N 46°06' W 060°12'18 1.8 070 / 151013.010.8 10.8 8.614.1
2019-Oct-12 08:00N 46°24' W 060°06'12511.4 100 / 321026.010.8 10.8 8.614.1
2019-Oct-11 21:00N 46°12' W 063°06'42 3.2 070 / 121031.010.8 11.8 6.315.1
2019-Oct-11 08:00N 46°06' W 062°06'11612.9 120 / 251031.010.8 11.8 6.315.1
2019-Oct-10 23:00N 48°00' W 062°36'1312.7 060 / 71031.010.8 9.8 7.411.8
2019-Oct-10 22:00N 48°12' W 062°42'16914.1 030 / 81031.010.8 9.8 7.411.8
2019-Oct-10 10:00N 49°12' W 066°42'2323.0 260 / 51032.010.8 7.1 4.6 9.5
2019-Oct-10 09:00N 49°00' W 067°12'8 7.9 280 / 101032.010.8 6.8 4.3 8.5
2019-Oct-10 08:00N 49°00' W 067°24'18618.6 230 / 101032.010.8 6.6 4.4 8.7
2019-Oct-09 22:00N 46°54' W 070°48'   040 / 131030.010.8 12.5 4.216.0

Dump ship's entire track history